Terminal Aerodrome Forecast
Issued by NWS

Home | Current Version | Previous Version | Text Only | Print | Product List | Glossary On
Versions: 1 2 3 4 5 6 7 8 9 10 11 12 13 14
462
FTUS43 KSGF 071138
TAFJLN
TAF
KJLN 071138Z 0712/0812 20012KT P6SM SCT250 WS020/24040KT
     FM071400 23014G20KT P6SM SCT250
     FM071900 29015G24KT P6SM SCT250
     FM080000 29012KT P6SM BKN250
     FM080400 29013KT P6SM OVC100 WS020/32040KT
     FM080900 32013G20KT P6SM BKN050 OVC100 WS020/32040KT=

USA.gov is the U.S. government's official web portal to all federal, state and local government web resources and services.